Time;durP1;ratioP1;P1;durP2;ratioP2;P2;SDS_P1;SDS_P2;PMS_P1;PMS_P2;Temp;Humidity;BMP_temperature;BMP_pressure;BME280_temperature;BME280_humidity;BME280_pressure;Samples;Min_cycle;Max_cycle;Signal;HPM_P1;HPM_P2
2023/09/22 00:01:29;;;;;;;5.35;1.60;;;;;;;;;;5095542;28;20072;-65
2023/09/22 00:03:55;;;;;;;5.07;1.83;;;;;;;;;;5097836;28;20023;-65
2023/09/22 00:06:22;;;;;;;7.03;1.98;;;;;;;;;;5078572;28;20073;-64
2023/09/22 00:08:49;;;;;;;5.75;1.85;;;;;;;;;;5096196;28;20024;-65
2023/09/22 00:11:17;;;;;;;5.72;1.85;;;;;;;;;;5084067;28;20027;-65
2023/09/22 00:13:43;;;;;;;4.85;1.60;;;;;;;;;;5101828;27;20142;-65
2023/09/22 00:16:09;;;;;;;5.50;1.92;;;;;;;;;;5094487;28;20016;-63
2023/09/22 00:18:35;;;;;;;5.80;1.88;;;;;;;;;;5096879;27;20032;-65
2023/09/22 00:21:00;;;;;;;4.63;1.77;;;;;;;;;;5114746;27;20020;-65
2023/09/22 00:23:25;;;;;;;5.67;1.60;;;;;;;;;;5095736;28;20020;-65
2023/09/22 00:25:50;;;;;;;4.57;1.70;;;;;;;;;;5083636;28;20257;-63
2023/09/22 00:28:16;;;;;;;7.05;2.00;;;;;;;;;;5076010;28;20318;-64
2023/09/22 00:30:41;;;;;;;5.35;1.77;;;;;;;;;;5080537;28;20073;-66
2023/09/22 00:33:06;;;;;;;7.00;1.80;;;;;;;;;;5101866;28;20074;-65
2023/09/22 00:35:31;;;;;;;7.17;2.13;;;;;;;;;;5098826;28;20820;-66
2023/09/22 00:37:57;;;;;;;5.20;1.90;;;;;;;;;;5072048;28;20481;-64
2023/09/22 00:40:25;;;;;;;6.07;1.77;;;;;;;;;;5097264;28;20645;-64
2023/09/22 00:43:07;;;;;;;5.03;2.00;;;;;;;;;;5099281;28;20039;-63
2023/09/22 00:45:35;;;;;;;6.43;1.90;;;;;;;;;;5089599;28;20020;-62
2023/09/22 00:48:01;;;;;;;7.55;2.00;;;;;;;;;;5081069;28;20051;-64
2023/09/22 00:50:26;;;;;;;6.03;2.20;;;;;;;;;;5085367;28;20398;-61
2023/09/22 00:52:52;;;;;;;7.10;2.10;;;;;;;;;;5098623;27;20019;-64
2023/09/22 00:55:19;;;;;;;5.75;1.95;;;;;;;;;;5101595;28;20288;-65
2023/09/22 00:57:45;;;;;;;5.47;1.60;;;;;;;;;;5095303;28;20031;-63
2023/09/22 01:00:13;;;;;;;5.10;1.70;;;;;;;;;;5078787;28;20032;-67
2023/09/22 01:02:39;;;;;;;7.60;2.10;;;;;;;;;;5080192;28;20020;-64
2023/09/22 01:05:08;;;;;;;4.97;1.58;;;;;;;;;;5080846;28;20016;-66
2023/09/22 01:07:33;;;;;;;4.70;1.58;;;;;;;;;;5095801;28;20029;-65
2023/09/22 01:10:10;;;;;;;5.13;1.80;;;;;;;;;;5093220;28;20480;-62
2023/09/22 01:12:38;;;;;;;5.95;1.80;;;;;;;;;;5100107;28;20828;-65
2023/09/22 01:15:03;;;;;;;5.15;1.70;;;;;;;;;;5098802;27;20043;-65
2023/09/22 01:17:30;;;;;;;6.65;2.10;;;;;;;;;;5098701;28;20094;-64
2023/09/22 01:19:58;;;;;;;5.18;1.98;;;;;;;;;;5082401;27;20051;-64
2023/09/22 01:22:23;;;;;;;5.55;1.60;;;;;;;;;;5095754;28;20030;-64
2023/09/22 01:24:51;;;;;;;4.50;1.53;;;;;;;;;;5100516;27;20361;-62
2023/09/22 01:27:17;;;;;;;5.13;1.50;;;;;;;;;;5081542;28;20019;-62
2023/09/22 01:29:45;;;;;;;5.53;1.55;;;;;;;;;;5078797;28;20039;-62
2023/09/22 01:32:12;;;;;;;6.13;1.60;;;;;;;;;;5096904;28;20038;-61
2023/09/22 01:34:38;;;;;;;6.20;1.80;;;;;;;;;;5080137;28;20020;-65
2023/09/22 01:37:07;;;;;;;5.78;1.48;;;;;;;;;;5099398;27;20080;-63
2023/09/22 01:39:36;;;;;;;6.65;2.00;;;;;;;;;;5079128;27;20057;-63
2023/09/22 01:42:01;;;;;;;7.30;1.70;;;;;;;;;;5094065;28;20080;-64
2023/09/22 01:44:26;;;;;;;6.77;1.80;;;;;;;;;;5094391;27;21314;-65
2023/09/22 01:46:52;;;;;;;6.13;1.97;;;;;;;;;;5093062;28;20309;-65
2023/09/22 01:49:17;;;;;;;6.07;1.73;;;;;;;;;;5071351;28;20044;-70
2023/09/22 01:51:45;;;;;;;3.87;1.60;;;;;;;;;;5063836;28;20110;-66
2023/09/22 01:54:10;;;;;;;5.80;1.65;;;;;;;;;;5069145;28;20282;-66
2023/09/22 01:56:37;;;;;;;5.85;1.83;;;;;;;;;;5077271;28;20158;-66
2023/09/22 01:59:03;;;;;;;6.45;1.60;;;;;;;;;;5064600;28;20032;-65
2023/09/22 02:01:28;;;;;;;5.78;1.70;;;;;;;;;;5079900;28;20024;-65
2023/09/22 02:03:55;;;;;;;6.60;1.90;;;;;;;;;;5080428;28;20019;-63
2023/09/22 02:06:21;;;;;;;5.80;1.80;;;;;;;;;;5059174;28;20262;-65
2023/09/22 02:08:46;;;;;;;5.15;1.80;;;;;;;;;;5078702;28;20024;-65
2023/09/22 02:11:14;;;;;;;6.40;1.90;;;;;;;;;;5077404;28;20032;-67
2023/09/22 02:13:40;;;;;;;6.20;1.80;;;;;;;;;;5073082;28;20050;-66
2023/09/22 02:16:05;;;;;;;4.30;1.50;;;;;;;;;;5063173;28;20810;-64
2023/09/22 02:18:31;;;;;;;7.47;1.80;;;;;;;;;;5078221;28;21210;-65
2023/09/22 02:20:56;;;;;;;5.45;1.80;;;;;;;;;;5064267;28;20032;-62
2023/09/22 02:23:24;;;;;;;5.45;1.95;;;;;;;;;;5076429;28;20032;-63
2023/09/22 02:25:50;;;;;;;5.45;1.85;;;;;;;;;;5064489;28;20019;-64
2023/09/22 02:28:15;;;;;;;6.20;1.97;;;;;;;;;;5058788;28;20056;-64
2023/09/22 02:30:43;;;;;;;6.73;1.43;;;;;;;;;;5071185;28;20716;-65
2023/09/22 02:33:08;;;;;;;6.05;2.00;;;;;;;;;;5056559;28;20357;-66
2023/09/22 02:35:33;;;;;;;6.25;1.70;;;;;;;;;;5077356;28;20023;-65
2023/09/22 02:37:58;;;;;;;6.87;1.90;;;;;;;;;;5080407;28;20020;-65
2023/09/22 02:40:24;;;;;;;5.05;1.80;;;;;;;;;;5079430;28;20776;-66
2023/09/22 02:42:49;;;;;;;7.23;1.90;;;;;;;;;;5073923;28;20028;-66
2023/09/22 02:45:14;;;;;;;6.32;2.05;;;;;;;;;;5078568;28;20103;-64
2023/09/22 02:47:40;;;;;;;4.93;1.80;;;;;;;;;;5096597;27;20055;-63
2023/09/22 02:50:09;;;;;;;5.00;1.90;;;;;;;;;;5061834;27;20019;-67
2023/09/22 02:52:35;;;;;;;6.90;1.88;;;;;;;;;;5087796;27;20034;-63
2023/09/22 02:55:00;;;;;;;7.13;1.83;;;;;;;;;;5089130;28;20512;-64
2023/09/22 02:57:25;;;;;;;4.90;1.70;;;;;;;;;;5088927;28;20131;-61
2023/09/22 02:59:52;;;;;;;5.97;1.70;;;;;;;;;;5093550;27;20594;-61
2023/09/22 03:02:17;;;;;;;4.88;1.80;;;;;;;;;;5094786;28;20016;-62
2023/09/22 03:04:42;;;;;;;4.43;1.83;;;;;;;;;;5096089;27;20089;-65
2023/09/22 03:07:07;;;;;;;4.43;1.83;;;;;;;;;;5076859;28;20736;-64
2023/09/22 03:09:33;;;;;;;7.47;1.87;;;;;;;;;;5074747;28;20274;-65
2023/09/22 03:11:58;;;;;;;6.63;2.47;;;;;;;;;;5082892;28;20020;-63
2023/09/22 03:14:23;;;;;;;6.70;2.37;;;;;;;;;;5082445;28;20272;-60
2023/09/22 03:16:49;;;;;;;8.70;2.50;;;;;;;;;;5083670;28;20767;-61
2023/09/22 03:19:14;;;;;;;6.22;2.38;;;;;;;;;;5073537;28;20265;-64
2023/09/22 03:21:42;;;;;;;5.90;2.30;;;;;;;;;;5091270;28;20448;-64
2023/09/22 03:24:07;;;;;;;5.97;2.10;;;;;;;;;;5095227;28;20242;-64
2023/09/22 03:26:32;;;;;;;7.20;2.10;;;;;;;;;;5088358;28;20035;-63
2023/09/22 03:28:58;;;;;;;6.20;2.00;;;;;;;;;;5092345;28;20077;-62
2023/09/22 03:31:25;;;;;;;5.55;1.98;;;;;;;;;;5078134;28;20024;-61
2023/09/22 03:33:51;;;;;;;5.88;1.70;;;;;;;;;;5081964;28;20030;-65
2023/09/22 03:36:19;;;;;;;4.97;1.50;;;;;;;;;;5091568;28;20012;-65
2023/09/22 03:38:48;;;;;;;4.57;1.38;;;;;;;;;;5085109;28;20122;-64
2023/09/22 03:41:15;;;;;;;5.88;1.73;;;;;;;;;;5099509;28;20106;-63
2023/09/22 03:43:41;;;;;;;5.10;1.23;;;;;;;;;;5081653;28;20080;-64
2023/09/22 03:46:07;;;;;;;4.70;1.70;;;;;;;;;;5091654;28;20027;-63
2023/09/22 03:48:32;;;;;;;3.78;1.40;;;;;;;;;;5076720;28;20047;-63
2023/09/22 03:50:57;;;;;;;5.00;1.30;;;;;;;;;;5070622;28;20031;-64
2023/09/22 03:53:23;;;;;;;5.32;1.40;;;;;;;;;;5091910;28;20244;-61
2023/09/22 03:55:48;;;;;;;4.85;2.20;;;;;;;;;;5102454;28;20020;-63
2023/09/22 03:58:14;;;;;;;5.97;1.75;;;;;;;;;;5088505;28;20444;-63
2023/09/22 04:00:44;;;;;;;4.53;1.92;;;;;;;;;;5095801;28;20101;-63
2023/09/22 04:03:10;;;;;;;6.60;1.60;;;;;;;;;;5073866;28;20027;-63
2023/09/22 04:05:36;;;;;;;4.85;1.70;;;;;;;;;;5095997;28;20752;-63
2023/09/22 04:08:02;;;;;;;5.28;1.80;;;;;;;;;;5088695;28;20020;-64
2023/09/22 04:10:29;;;;;;;4.72;1.60;;;;;;;;;;5089741;28;20059;-62
2023/09/22 04:12:55;;;;;;;4.22;1.52;;;;;;;;;;5076966;28;20016;-64
2023/09/22 04:15:22;;;;;;;4.97;1.40;;;;;;;;;;5088897;28;20024;-62
2023/09/22 04:17:48;;;;;;;5.85;1.80;;;;;;;;;;5095599;28;20031;-64
2023/09/22 04:20:16;;;;;;;5.78;1.50;;;;;;;;;;5074061;28;20059;-63
2023/09/22 04:22:43;;;;;;;4.43;1.60;;;;;;;;;;5092868;28;20094;-64
2023/09/22 04:25:11;;;;;;;4.65;1.60;;;;;;;;;;5091887;28;20028;-63
2023/09/22 04:27:43;;;;;;;5.80;1.83;;;;;;;;;;5092043;28;20236;-62
2023/09/22 04:30:09;;;;;;;5.68;1.80;;;;;;;;;;5086863;28;20027;-64
2023/09/22 04:32:35;;;;;;;5.07;1.55;;;;;;;;;;5096189;27;20106;-64
2023/09/22 04:35:00;;;;;;;4.07;1.48;;;;;;;;;;5099523;27;20012;-63
2023/09/22 04:37:26;;;;;;;4.38;1.60;;;;;;;;;;5110575;27;20093;-63
2023/09/22 04:39:52;;;;;;;4.70;1.55;;;;;;;;;;5094423;28;20024;-64
2023/09/22 04:42:18;;;;;;;4.10;1.50;;;;;;;;;;5091231;27;20023;-65
2023/09/22 04:44:43;;;;;;;4.80;1.70;;;;;;;;;;5079052;27;20024;-64
2023/09/22 04:47:11;;;;;;;5.07;2.30;;;;;;;;;;5087835;28;20503;-64
2023/09/22 04:49:38;;;;;;;7.07;2.45;;;;;;;;;;5070122;28;20785;-63
2023/09/22 04:52:04;;;;;;;5.55;2.25;;;;;;;;;;5074779;28;20028;-64
2023/09/22 04:54:29;;;;;;;6.77;2.73;;;;;;;;;;5062723;28;20074;-63
2023/09/22 04:56:55;;;;;;;8.07;2.70;;;;;;;;;;5063131;28;21219;-65
2023/09/22 04:59:20;;;;;;;6.50;2.73;;;;;;;;;;5061576;28;20143;-62
2023/09/22 05:01:48;;;;;;;5.00;2.30;;;;;;;;;;5081326;28;20271;-66
2023/09/22 05:04:13;;;;;;;5.82;2.28;;;;;;;;;;5042079;28;20033;-61
2023/09/22 05:06:38;;;;;;;6.40;2.20;;;;;;;;;;5054532;28;20468;-61
2023/09/22 05:09:05;;;;;;;7.20;2.07;;;;;;;;;;5075680;28;20278;-61
2023/09/22 05:11:32;;;;;;;4.68;2.00;;;;;;;;;;5083994;28;20151;-61
2023/09/22 05:14:00;;;;;;;6.80;2.50;;;;;;;;;;5071911;28;20032;-63
2023/09/22 05:16:27;;;;;;;7.45;2.60;;;;;;;;;;5088349;28;20024;-66
2023/09/22 05:18:54;;;;;;;7.82;3.00;;;;;;;;;;5052726;28;20025;-63
2023/09/22 05:21:19;;;;;;;6.95;3.05;;;;;;;;;;5078679;28;20019;-65
2023/09/22 05:23:47;;;;;;;6.90;3.00;;;;;;;;;;5076410;28;20021;-65
2023/09/22 05:26:14;;;;;;;9.27;2.75;;;;;;;;;;5056969;28;20280;-60
2023/09/22 05:28:39;;;;;;;6.80;2.60;;;;;;;;;;5077921;28;20032;-64
2023/09/22 05:31:08;;;;;;;7.33;2.53;;;;;;;;;;5053247;28;20050;-65
2023/09/22 05:33:33;;;;;;;7.10;2.63;;;;;;;;;;5050898;28;20265;-64
2023/09/22 05:35:59;;;;;;;7.00;1.90;;;;;;;;;;5061854;28;20529;-64
2023/09/22 05:38:24;;;;;;;5.47;2.17;;;;;;;;;;5073055;28;20103;-63
2023/09/22 05:40:49;;;;;;;5.65;2.10;;;;;;;;;;5073838;28;20008;-63
2023/09/22 05:43:15;;;;;;;6.17;1.90;;;;;;;;;;5073281;28;20062;-65
2023/09/22 05:45:42;;;;;;;6.68;2.38;;;;;;;;;;5054675;28;20254;-63
2023/09/22 05:48:08;;;;;;;5.22;2.00;;;;;;;;;;5055279;28;20151;-64
2023/09/22 05:50:35;;;;;;;7.47;2.33;;;;;;;;;;5076565;28;20024;-64
2023/09/22 05:53:05;;;;;;;6.18;1.88;;;;;;;;;;5059268;28;20722;-63
2023/09/22 05:55:30;;;;;;;4.82;1.85;;;;;;;;;;5081153;28;20024;-64
2023/09/22 05:57:58;;;;;;;5.38;1.85;;;;;;;;;;5080764;28;20073;-64
2023/09/22 06:00:26;;;;;;;5.68;1.73;;;;;;;;;;5061889;28;20031;-64
2023/09/22 06:02:52;;;;;;;6.13;2.22;;;;;;;;;;5072943;28;20103;-65
2023/09/22 06:05:18;;;;;;;5.90;1.88;;;;;;;;;;5064470;28;20108;-64
2023/09/22 06:07:43;;;;;;;5.78;1.73;;;;;;;;;;5060740;28;20051;-63
2023/09/22 06:10:09;;;;;;;8.60;1.80;;;;;;;;;;5079562;28;20115;-64
2023/09/22 06:12:35;;;;;;;4.32;1.80;;;;;;;;;;5072616;28;20026;-64
2023/09/22 06:15:04;;;;;;;6.68;1.60;;;;;;;;;;5065273;28;20024;-64
2023/09/22 06:17:32;;;;;;;5.30;1.80;;;;;;;;;;5056564;28;20379;-65
2023/09/22 06:19:57;;;;;;;5.38;2.00;;;;;;;;;;5083162;28;20035;-66
2023/09/22 06:22:25;;;;;;;7.90;1.92;;;;;;;;;;5061378;28;20020;-65
2023/09/22 06:24:51;;;;;;;6.45;1.90;;;;;;;;;;5062081;28;21160;-65
2023/09/22 06:27:18;;;;;;;9.40;2.15;;;;;;;;;;5079736;28;20049;-62
2023/09/22 06:29:44;;;;;;;4.35;1.60;;;;;;;;;;5078682;28;20055;-65
2023/09/22 06:32:09;;;;;;;6.20;1.88;;;;;;;;;;5060756;28;20148;-64
2023/09/22 06:34:34;;;;;;;6.40;2.00;;;;;;;;;;5061198;28;20071;-65
2023/09/22 06:36:59;;;;;;;6.33;1.67;;;;;;;;;;5074410;28;20043;-67
2023/09/22 06:39:25;;;;;;;7.20;2.28;;;;;;;;;;5061434;28;20068;-66
2023/09/22 06:41:50;;;;;;;5.03;1.67;;;;;;;;;;5050137;28;20019;-65
2023/09/22 06:44:16;;;;;;;5.70;1.70;;;;;;;;;;5064670;28;20692;-69
2023/09/22 06:46:41;;;;;;;5.90;1.80;;;;;;;;;;5080838;28;20313;-64
2023/09/22 06:49:07;;;;;;;6.68;2.13;;;;;;;;;;5068277;28;20522;-68
2023/09/22 06:51:37;;;;;;;7.75;1.73;;;;;;;;;;5074728;28;20046;-66
2023/09/22 06:54:02;;;;;;;5.30;1.70;;;;;;;;;;5071619;28;20013;-65
2023/09/22 06:56:30;;;;;;;6.75;1.75;;;;;;;;;;5070843;28;20394;-62
2023/09/22 06:58:55;;;;;;;7.00;2.05;;;;;;;;;;5081138;28;20028;-66
2023/09/22 07:01:20;;;;;;;5.23;1.70;;;;;;;;;;5075354;28;20540;-65
2023/09/22 07:03:48;;;;;;;5.53;1.70;;;;;;;;;;5082935;28;20273;-63
2023/09/22 07:06:18;;;;;;;5.85;1.70;;;;;;;;;;5066686;28;20028;-66
2023/09/22 07:08:45;;;;;;;6.45;1.70;;;;;;;;;;5078915;28;20099;-63
2023/09/22 07:11:13;;;;;;;5.68;1.80;;;;;;;;;;5076524;28;20023;-65
2023/09/22 07:13:40;;;;;;;6.70;1.80;;;;;;;;;;5070540;28;20008;-65
2023/09/22 07:16:08;;;;;;;6.68;1.90;;;;;;;;;;5064814;28;20036;-65
2023/09/22 07:18:33;;;;;;;6.28;1.80;;;;;;;;;;5054184;28;20020;-66
2023/09/22 07:21:00;;;;;;;5.97;1.60;;;;;;;;;;5080495;28;20026;-64
2023/09/22 07:23:25;;;;;;;5.40;1.58;;;;;;;;;;5072856;28;20515;-63
2023/09/22 07:26:00;;;;;;;7.65;1.90;;;;;;;;;;5070735;28;20035;-64
2023/09/22 07:28:27;;;;;;;6.65;1.88;;;;;;;;;;5075247;28;20012;-64
2023/09/22 07:30:54;;;;;;;7.40;2.30;;;;;;;;;;5075550;28;20047;-63
2023/09/22 07:33:20;;;;;;;7.53;2.10;;;;;;;;;;5054074;28;20059;-63
2023/09/22 07:35:46;;;;;;;7.25;1.88;;;;;;;;;;5059726;28;20119;-64
2023/09/22 07:38:11;;;;;;;6.55;1.90;;;;;;;;;;5074817;28;20016;-63
2023/09/22 07:40:41;;;;;;;4.30;1.70;;;;;;;;;;5074847;28;20031;-63
2023/09/22 07:43:07;;;;;;;5.35;1.77;;;;;;;;;;5072332;28;20571;-65
2023/09/22 07:45:33;;;;;;;6.68;1.92;;;;;;;;;;5073820;28;20937;-61
2023/09/22 07:47:58;;;;;;;7.50;1.93;;;;;;;;;;5074490;28;20072;-64
2023/09/22 07:50:23;;;;;;;7.83;1.87;;;;;;;;;;5085053;28;20280;-65
2023/09/22 07:52:49;;;;;;;6.93;2.30;;;;;;;;;;5075645;28;20263;-64
2023/09/22 07:55:16;;;;;;;8.05;2.08;;;;;;;;;;5080869;28;20352;-66
2023/09/22 07:57:41;;;;;;;7.40;2.20;;;;;;;;;;5086533;28;20016;-64
2023/09/22 08:00:10;;;;;;;7.03;2.30;;;;;;;;;;5080386;28;20157;-65
2023/09/22 08:02:38;;;;;;;8.98;2.55;;;;;;;;;;5073222;28;20026;-65
2023/09/22 08:05:06;;;;;;;6.38;2.00;;;;;;;;;;5085843;28;20194;-64
2023/09/22 08:07:31;;;;;;;9.02;2.47;;;;;;;;;;5080773;28;20035;-63
2023/09/22 08:10:00;;;;;;;5.67;1.80;;;;;;;;;;5083714;28;20011;-65
2023/09/22 08:12:25;;;;;;;6.00;1.83;;;;;;;;;;5082940;28;20256;-64
2023/09/22 08:14:51;;;;;;;5.35;1.98;;;;;;;;;;5079472;28;20017;-65
2023/09/22 08:17:16;;;;;;;7.97;2.22;;;;;;;;;;5076017;28;20408;-61
2023/09/22 08:19:41;;;;;;;11.00;2.30;;;;;;;;;;5074846;28;20481;-65
2023/09/22 08:22:06;;;;;;;8.40;2.13;;;;;;;;;;5074371;28;20250;-65
2023/09/22 08:24:32;;;;;;;7.25;1.90;;;;;;;;;;5083052;28;20257;-66
2023/09/22 08:26:59;;;;;;;6.60;1.90;;;;;;;;;;5062887;28;20113;-64
2023/09/22 08:29:29;;;;;;;5.80;2.05;;;;;;;;;;5089935;28;20286;-64
2023/09/22 08:31:55;;;;;;;6.93;2.00;;;;;;;;;;5078727;28;20117;-64
2023/09/22 08:34:21;;;;;;;7.25;1.98;;;;;;;;;;5078146;28;20021;-64
2023/09/22 08:36:48;;;;;;;7.10;2.05;;;;;;;;;;5062186;28;20475;-64
2023/09/22 08:39:15;;;;;;;7.38;2.10;;;;;;;;;;5063075;28;20082;-64
2023/09/22 08:41:41;;;;;;;7.10;1.98;;;;;;;;;;5081816;28;20130;-64
2023/09/22 08:44:06;;;;;;;6.63;2.10;;;;;;;;;;5084397;28;20015;-60
2023/09/22 08:46:33;;;;;;;8.38;2.22;;;;;;;;;;5092163;27;21091;-64
2023/09/22 08:48:58;;;;;;;6.22;2.10;;;;;;;;;;5064581;28;20039;-63
2023/09/22 08:51:23;;;;;;;5.90;2.13;;;;;;;;;;5075590;28;20027;-65
2023/09/22 08:53:53;;;;;;;9.70;2.33;;;;;;;;;;5081118;28;20245;-64
2023/09/22 08:56:20;;;;;;;6.82;1.80;;;;;;;;;;5076783;28;20250;-63
2023/09/22 08:58:45;;;;;;;7.68;2.20;;;;;;;;;;5070244;28;20023;-63
2023/09/22 09:01:13;;;;;;;6.83;2.20;;;;;;;;;;5065571;28;20020;-64
2023/09/22 09:03:39;;;;;;;7.60;2.53;;;;;;;;;;5059372;28;20266;-64
2023/09/22 09:06:14;;;;;;;6.20;2.08;;;;;;;;;;5083504;28;20019;-65
2023/09/22 09:08:39;;;;;;;7.78;2.28;;;;;;;;;;5078448;28;20479;-65
2023/09/22 09:11:10;;;;;;;10.15;2.65;;;;;;;;;;5070171;28;20028;-69
2023/09/22 09:13:39;;;;;;;8.48;2.85;;;;;;;;;;5059354;28;20540;-70
2023/09/22 09:16:08;;;;;;;8.45;2.50;;;;;;;;;;5055768;28;20230;-64
2023/09/22 09:18:33;;;;;;;8.67;2.13;;;;;;;;;;5074709;28;20642;-68
2023/09/22 09:21:15;;;;;;;10.40;2.30;;;;;;;;;;5059542;28;20031;-64
2023/09/22 09:23:54;;;;;;;6.50;1.85;;;;;;;;;;5065837;28;20083;-66
2023/09/22 09:26:25;;;;;;;7.43;2.20;;;;;;;;;;5071249;28;20104;-62
2023/09/22 09:28:50;;;;;;;6.95;2.00;;;;;;;;;;5097955;28;20046;-64
2023/09/22 09:31:18;;;;;;;6.83;1.87;;;;;;;;;;5076303;28;20020;-68
2023/09/22 09:33:51;;;;;;;8.57;2.25;;;;;;;;;;5079832;28;20019;-65
2023/09/22 09:36:16;;;;;;;7.72;2.22;;;;;;;;;;5079732;28;20642;-64
2023/09/22 09:38:44;;;;;;;6.90;1.93;;;;;;;;;;5092557;27;20035;-63
2023/09/22 09:41:10;;;;;;;7.68;1.92;;;;;;;;;;5068500;28;20262;-65
2023/09/22 09:43:36;;;;;;;5.57;2.05;;;;;;;;;;5061094;28;20340;-65
2023/09/22 09:46:02;;;;;;;8.52;2.35;;;;;;;;;;5065442;28;20490;-64
2023/09/22 09:48:27;;;;;;;6.72;2.17;;;;;;;;;;5077428;28;20065;-64
2023/09/22 09:51:00;;;;;;;8.82;2.60;;;;;;;;;;5072946;28;20722;-64
2023/09/22 09:53:31;;;;;;;9.07;2.50;;;;;;;;;;5076066;28;20038;-61
2023/09/22 09:55:59;;;;;;;6.80;2.15;;;;;;;;;;5062777;28;20020;-64
2023/09/22 09:58:29;;;;;;;5.53;1.98;;;;;;;;;;5077612;28;20026;-64
2023/09/22 10:00:56;;;;;;;6.32;2.40;;;;;;;;;;5082864;28;20390;-63
2023/09/22 10:03:21;;;;;;;7.22;2.20;;;;;;;;;;5058710;28;20037;-65
2023/09/22 10:05:49;;;;;;;6.75;2.10;;;;;;;;;;5077633;28;20734;-64
2023/09/22 10:08:15;;;;;;;6.85;2.30;;;;;;;;;;5074356;28;20061;-64
2023/09/22 10:10:41;;;;;;;8.43;3.05;;;;;;;;;;5074603;28;20070;-63
2023/09/22 10:13:11;;;;;;;6.03;2.40;;;;;;;;;;5072592;28;20020;-64
2023/09/22 10:15:53;;;;;;;5.85;2.47;;;;;;;;;;5081324;28;20375;-65
2023/09/22 10:18:23;;;;;;;6.15;2.35;;;;;;;;;;5055868;28;20668;-63
2023/09/22 10:20:49;;;;;;;7.07;2.53;;;;;;;;;;5074350;28;20027;-64
2023/09/22 10:23:22;;;;;;;7.15;2.50;;;;;;;;;;5072992;28;20029;-64
2023/09/22 10:26:20;;;;;;;9.60;2.80;;;;;;;;;;5076504;28;20012;-66
2023/09/22 10:28:47;;;;;;;6.45;2.38;;;;;;;;;;5010503;28;20404;-68
2023/09/22 10:31:13;;;;;;;10.70;2.95;;;;;;;;;;5079542;28;20012;-62
2023/09/22 10:33:38;;;;;;;8.27;2.63;;;;;;;;;;5088127;28;20077;-64
2023/09/22 10:36:05;;;;;;;8.73;2.80;;;;;;;;;;5064701;28;20415;-64
2023/09/22 10:38:58;;;;;;;6.25;2.20;;;;;;;;;;5049768;28;20035;-64
2023/09/22 10:41:26;;;;;;;7.63;2.40;;;;;;;;;;5061444;28;20020;-65
2023/09/22 10:43:58;;;;;;;7.78;2.50;;;;;;;;;;5070091;28;20023;-65
2023/09/22 10:46:26;;;;;;;8.88;3.17;;;;;;;;;;5070985;28;20095;-65
2023/09/22 10:48:51;;;;;;;7.28;3.13;;;;;;;;;;5057981;28;20027;-64
2023/09/22 10:51:18;;;;;;;9.27;3.00;;;;;;;;;;5061406;28;20032;-63
2023/09/22 10:53:53;;;;;;;12.02;3.13;;;;;;;;;;5069988;28;20879;-63
2023/09/22 10:56:19;;;;;;;9.05;3.38;;;;;;;;;;5079348;28;20024;-64
2023/09/22 10:58:48;;;;;;;7.68;3.03;;;;;;;;;;5074408;28;20094;-65
2023/09/22 11:01:13;;;;;;;8.63;2.92;;;;;;;;;;5076014;28;20020;-63
2023/09/22 11:03:48;;;;;;;8.55;3.15;;;;;;;;;;5062262;28;20040;-64
2023/09/22 11:06:16;;;;;;;7.15;2.90;;;;;;;;;;5077290;28;20023;-66
2023/09/22 11:08:52;;;;;;;8.57;2.50;;;;;;;;;;5057583;28;20022;-63
2023/09/22 11:11:18;;;;;;;6.80;2.30;;;;;;;;;;5072483;28;20020;-64
2023/09/22 11:13:53;;;;;;;6.38;2.20;;;;;;;;;;5062224;28;20028;-64
2023/09/22 11:16:19;;;;;;;6.50;2.60;;;;;;;;;;5084772;28;20019;-64
2023/09/22 11:18:45;;;;;;;9.30;3.03;;;;;;;;;;5079679;28;20016;-61
2023/09/22 11:21:11;;;;;;;7.50;2.90;;;;;;;;;;5059856;28;20024;-62
2023/09/22 11:23:43;;;;;;;8.85;3.42;;;;;;;;;;5078310;28;20666;-64
2023/09/22 11:26:12;;;;;;;8.98;3.65;;;;;;;;;;5076063;28;20082;-61
2023/09/22 11:28:40;;;;;;;7.83;3.37;;;;;;;;;;5074250;28;20105;-62
2023/09/22 11:31:08;;;;;;;7.25;3.72;;;;;;;;;;5053421;28;20741;-63
2023/09/22 11:33:35;;;;;;;8.70;3.72;;;;;;;;;;5084033;28;20012;-65
2023/09/22 11:36:01;;;;;;;9.32;3.53;;;;;;;;;;5089006;27;20024;-64
2023/09/22 11:38:31;;;;;;;11.10;3.55;;;;;;;;;;5079787;28;20057;-63
2023/09/22 11:41:08;;;;;;;8.55;3.90;;;;;;;;;;5090824;27;20074;-64
2023/09/22 11:43:35;;;;;;;7.95;3.28;;;;;;;;;;5080584;28;20760;-65
2023/09/22 11:46:17;;;;;;;5.47;2.90;;;;;;;;;;5063013;28;20032;-66
2023/09/22 11:49:02;;;;;;;6.75;3.67;;;;;;;;;;5067705;28;20121;-65
2023/09/22 11:51:39;;;;;;;12.27;3.53;;;;;;;;;;5061799;28;20044;-66
2023/09/22 11:54:09;;;;;;;10.23;3.20;;;;;;;;;;5080742;28;20024;-66
2023/09/22 11:56:37;;;;;;;7.82;2.80;;;;;;;;;;5082354;28;20027;-65
2023/09/22 11:59:15;;;;;;;7.60;2.20;;;;;;;;;;5097094;27;20111;-67
2023/09/22 12:01:41;;;;;;;5.25;1.58;;;;;;;;;;5063458;28;20042;-73
2023/09/22 12:04:09;;;;;;;6.22;1.50;;;;;;;;;;5092362;28;20769;-67
2023/09/22 12:06:36;;;;;;;5.18;1.83;;;;;;;;;;5083396;28;20077;-68
2023/09/22 12:09:04;;;;;;;4.60;1.77;;;;;;;;;;5070635;28;20038;-70
2023/09/22 12:11:30;;;;;;;6.32;1.83;;;;;;;;;;5065786;28;20035;-70
2023/09/22 12:13:55;;;;;;;4.60;1.60;;;;;;;;;;5069290;28;20016;-71
2023/09/22 12:16:20;;;;;;;5.07;2.00;;;;;;;;;;5066987;28;20432;-70
2023/09/22 12:18:45;;;;;;;6.30;2.38;;;;;;;;;;5070105;28;20139;-70
2023/09/22 12:21:11;;;;;;;5.33;2.00;;;;;;;;;;5060013;28;20056;-68
2023/09/22 12:23:40;;;;;;;4.30;1.60;;;;;;;;;;5077373;28;20251;-70
2023/09/22 12:26:06;;;;;;;5.68;2.22;;;;;;;;;;5072314;28;20250;-68
2023/09/22 12:28:42;;;;;;;6.22;2.40;;;;;;;;;;5086220;28;20034;-66
2023/09/22 12:31:09;;;;;;;5.35;2.40;;;;;;;;;;5070919;28;20024;-68
2023/09/22 12:33:35;;;;;;;5.13;2.50;;;;;;;;;;5090796;27;20492;-64
2023/09/22 12:36:03;;;;;;;6.05;2.85;;;;;;;;;;5064097;28;20055;-67
2023/09/22 12:38:28;;;;;;;5.85;3.03;;;;;;;;;;5081686;28;20037;-67
2023/09/22 12:40:53;;;;;;;5.83;3.47;;;;;;;;;;5082627;28;20874;-66
2023/09/22 12:43:19;;;;;;;7.15;3.30;;;;;;;;;;5072305;28;20250;-67
2023/09/22 12:45:46;;;;;;;7.10;3.90;;;;;;;;;;5079197;28;20020;-64
2023/09/22 12:48:12;;;;;;;8.00;4.15;;;;;;;;;;5064226;28;20274;-66
2023/09/22 12:50:37;;;;;;;8.18;4.53;;;;;;;;;;5061770;28;20486;-66
2023/09/22 12:53:03;;;;;;;8.07;4.20;;;;;;;;;;5050211;28;20415;-65
2023/09/22 12:55:31;;;;;;;6.88;4.07;;;;;;;;;;5058022;28;21233;-67
2023/09/22 12:57:57;;;;;;;7.45;3.55;;;;;;;;;;5050826;28;20020;-66
2023/09/22 13:00:22;;;;;;;6.72;3.80;;;;;;;;;;5055211;28;20032;-66
2023/09/22 13:02:55;;;;;;;8.00;3.93;;;;;;;;;;5071901;28;20016;-66
2023/09/22 13:05:22;;;;;;;6.63;3.67;;;;;;;;;;5062470;28;20277;-65
2023/09/22 13:07:48;;;;;;;7.15;4.10;;;;;;;;;;5066225;28;20020;-66
2023/09/22 13:10:13;;;;;;;7.17;3.83;;;;;;;;;;5053262;28;20405;-66
2023/09/22 13:12:39;;;;;;;7.25;4.50;;;;;;;;;;5055772;28;20277;-66
2023/09/22 13:15:07;;;;;;;9.55;4.60;;;;;;;;;;5072513;28;20375;-66
2023/09/22 13:17:34;;;;;;;7.85;4.55;;;;;;;;;;5057599;28;20434;-66
2023/09/22 13:20:00;;;;;;;8.55;5.05;;;;;;;;;;5057711;28;20035;-66
2023/09/22 13:22:25;;;;;;;7.93;5.05;;;;;;;;;;5076433;28;20036;-66
2023/09/22 13:24:51;;;;;;;8.57;4.85;;;;;;;;;;5059653;28;20107;-63
2023/09/22 13:27:16;;;;;;;10.57;4.60;;;;;;;;;;5060702;28;20020;-64
2023/09/22 13:29:44;;;;;;;8.30;4.30;;;;;;;;;;5076842;28;20281;-66
2023/09/22 13:32:09;;;;;;;7.63;4.38;;;;;;;;;;5061875;28;20282;-65
2023/09/22 13:34:35;;;;;;;8.43;4.22;;;;;;;;;;5083863;27;20395;-67
2023/09/22 13:37:01;;;;;;;7.13;3.90;;;;;;;;;;5077346;28;20023;-66
2023/09/22 13:39:26;;;;;;;9.07;3.85;;;;;;;;;;5072974;28;20020;-62
2023/09/22 13:41:54;;;;;;;6.70;3.03;;;;;;;;;;5050350;28;20030;-65
2023/09/22 13:44:19;;;;;;;7.40;3.42;;;;;;;;;;5056540;28;20282;-65
2023/09/22 13:46:45;;;;;;;5.57;2.20;;;;;;;;;;5073974;28;20059;-65
2023/09/22 13:49:11;;;;;;;5.97;2.40;;;;;;;;;;5070420;28;20971;-66
2023/09/22 13:51:37;;;;;;;5.95;2.50;;;;;;;;;;5052252;28;20020;-65
2023/09/22 13:54:02;;;;;;;4.82;2.08;;;;;;;;;;5058013;28;20016;-65
2023/09/22 13:56:30;;;;;;;7.80;2.10;;;;;;;;;;5074657;28;20793;-65
2023/09/22 13:58:56;;;;;;;4.78;2.03;;;;;;;;;;5077052;28;20073;-66
2023/09/22 14:01:24;;;;;;;6.03;2.40;;;;;;;;;;5054859;28;20439;-64
2023/09/22 14:03:55;;;;;;;6.35;2.40;;;;;;;;;;5055480;28;20448;-68
2023/09/22 14:06:21;;;;;;;6.43;2.45;;;;;;;;;;5070846;28;20562;-69
2023/09/22 14:08:47;;;;;;;6.30;2.05;;;;;;;;;;5057081;28;20035;-64
2023/09/22 14:11:16;;;;;;;4.75;1.80;;;;;;;;;;5056550;28;21189;-65
2023/09/22 14:13:42;;;;;;;7.13;2.60;;;;;;;;;;5056759;28;20042;-66
2023/09/22 14:16:08;;;;;;;5.32;2.38;;;;;;;;;;5075666;28;20019;-65
2023/09/22 14:18:33;;;;;;;4.70;2.20;;;;;;;;;;5056500;28;20027;-65
2023/09/22 14:20:59;;;;;;;6.15;2.25;;;;;;;;;;5053026;28;20042;-65
2023/09/22 14:23:27;;;;;;;5.65;2.40;;;;;;;;;;5066769;28;20487;-65
2023/09/22 14:25:52;;;;;;;4.63;2.30;;;;;;;;;;5051489;28;20079;-65
2023/09/22 14:28:18;;;;;;;6.45;2.63;;;;;;;;;;5070987;28;20024;-66
2023/09/22 14:30:43;;;;;;;6.00;2.50;;;;;;;;;;5056223;28;20032;-65
2023/09/22 14:33:09;;;;;;;5.53;2.90;;;;;;;;;;5075128;28;21102;-63
2023/09/22 14:35:34;;;;;;;5.65;2.83;;;;;;;;;;5075745;28;21459;-64
2023/09/22 14:37:59;;;;;;;6.97;3.07;;;;;;;;;;5050116;28;20111;-63
2023/09/22 14:40:27;;;;;;;6.37;3.23;;;;;;;;;;5069815;28;20273;-67
2023/09/22 14:42:55;;;;;;;7.82;3.38;;;;;;;;;;5068710;28;20016;-66